sensor_id;sensor_type;location;lat;lon;timestamp;P1;durP1;ratioP1;P2;durP2;ratioP2
11671;SDS011;5892;43.412;24.612;2022-09-04T00:00:49;14.10;;;12.00;;
11671;SDS011;5892;43.412;24.612;2022-09-04T00:03:33;13.83;;;11.70;;
11671;SDS011;5892;43.412;24.612;2022-09-04T00:06:06;13.37;;;11.97;;
11671;SDS011;5892;43.412;24.612;2022-09-04T00:08:45;13.03;;;11.70;;
11671;SDS011;5892;43.412;24.612;2022-09-04T00:11:34;13.10;;;11.60;;
11671;SDS011;5892;43.412;24.612;2022-09-04T00:14:04;13.03;;;11.67;;
11671;SDS011;5892;43.412;24.612;2022-09-04T00:16:34;12.53;;;11.33;;
11671;SDS011;5892;43.412;24.612;2022-09-04T00:19:07;13.10;;;11.80;;
11671;SDS011;5892;43.412;24.612;2022-09-04T00:21:36;13.53;;;11.90;;
11671;SDS011;5892;43.412;24.612;2022-09-04T00:24:06;12.77;;;11.10;;
11671;SDS011;5892;43.412;24.612;2022-09-04T00:27:02;13.27;;;11.73;;
11671;SDS011;5892;43.412;24.612;2022-09-04T00:33:22;13.87;;;12.47;;
11671;SDS011;5892;43.412;24.612;2022-09-04T00:36:06;13.87;;;12.47;;
11671;SDS011;5892;43.412;24.612;2022-09-04T00:38:37;15.40;;;13.57;;
11671;SDS011;5892;43.412;24.612;2022-09-04T00:41:07;14.37;;;12.87;;
11671;SDS011;5892;43.412;24.612;2022-09-04T00:43:48;16.67;;;13.90;;
11671;SDS011;5892;43.412;24.612;2022-09-04T00:46:31;15.23;;;13.73;;
11671;SDS011;5892;43.412;24.612;2022-09-04T00:51:45;16.00;;;14.30;;
11671;SDS011;5892;43.412;24.612;2022-09-04T00:54:22;16.23;;;14.53;;
11671;SDS011;5892;43.412;24.612;2022-09-04T01:00:03;19.50;;;15.20;;
11671;SDS011;5892;43.412;24.612;2022-09-04T01:02:38;19.10;;;15.20;;
11671;SDS011;5892;43.412;24.612;2022-09-04T01:05:07;17.60;;;14.80;;
11671;SDS011;5892;43.412;24.612;2022-09-04T01:07:42;20.23;;;15.43;;
11671;SDS011;5892;43.412;24.612;2022-09-04T01:12:39;17.30;;;15.50;;
11671;SDS011;5892;43.412;24.612;2022-09-04T01:15:11;17.70;;;15.43;;
11671;SDS011;5892;43.412;24.612;2022-09-04T01:17:41;19.50;;;16.07;;
11671;SDS011;5892;43.412;24.612;2022-09-04T01:20:11;17.50;;;15.53;;
11671;SDS011;5892;43.412;24.612;2022-09-04T01:23:00;19.80;;;16.60;;
11671;SDS011;5892;43.412;24.612;2022-09-04T01:28:38;21.33;;;16.53;;
11671;SDS011;5892;43.412;24.612;2022-09-04T01:31:30;19.80;;;16.63;;
11671;SDS011;5892;43.412;24.612;2022-09-04T01:34:26;19.10;;;16.63;;
11671;SDS011;5892;43.412;24.612;2022-09-04T01:36:57;19.83;;;16.70;;
11671;SDS011;5892;43.412;24.612;2022-09-04T01:39:26;17.90;;;16.03;;
11671;SDS011;5892;43.412;24.612;2022-09-04T01:41:55;18.40;;;15.93;;
11671;SDS011;5892;43.412;24.612;2022-09-04T01:44:25;19.03;;;16.70;;
11671;SDS011;5892;43.412;24.612;2022-09-04T01:46:55;21.07;;;16.80;;
11671;SDS011;5892;43.412;24.612;2022-09-04T01:49:27;19.23;;;16.10;;
11671;SDS011;5892;43.412;24.612;2022-09-04T01:51:56;20.97;;;16.57;;
11671;SDS011;5892;43.412;24.612;2022-09-04T01:54:29;18.63;;;16.47;;
11671;SDS011;5892;43.412;24.612;2022-09-04T01:57:02;19.43;;;16.33;;
11671;SDS011;5892;43.412;24.612;2022-09-04T01:59:36;19.83;;;15.43;;
11671;SDS011;5892;43.412;24.612;2022-09-04T02:02:04;20.20;;;16.10;;
11671;SDS011;5892;43.412;24.612;2022-09-04T02:04:37;17.03;;;15.23;;
11671;SDS011;5892;43.412;24.612;2022-09-04T02:07:08;17.57;;;15.77;;
11671;SDS011;5892;43.412;24.612;2022-09-04T02:09:40;18.67;;;15.70;;
11671;SDS011;5892;43.412;24.612;2022-09-04T02:12:13;18.40;;;15.87;;
11671;SDS011;5892;43.412;24.612;2022-09-04T02:14:45;17.43;;;15.53;;
11671;SDS011;5892;43.412;24.612;2022-09-04T02:17:16;17.37;;;15.53;;
11671;SDS011;5892;43.412;24.612;2022-09-04T02:19:47;17.97;;;16.07;;
11671;SDS011;5892;43.412;24.612;2022-09-04T02:22:20;17.17;;;15.27;;
11671;SDS011;5892;43.412;24.612;2022-09-04T02:24:50;17.30;;;15.13;;
11671;SDS011;5892;43.412;24.612;2022-09-04T02:27:19;17.43;;;14.47;;
11671;SDS011;5892;43.412;24.612;2022-09-04T02:29:54;16.53;;;14.40;;
11671;SDS011;5892;43.412;24.612;2022-09-04T02:32:24;16.83;;;14.13;;
11671;SDS011;5892;43.412;24.612;2022-09-04T02:34:53;15.60;;;13.93;;
11671;SDS011;5892;43.412;24.612;2022-09-04T02:37:24;15.30;;;13.47;;
11671;SDS011;5892;43.412;24.612;2022-09-04T02:39:58;15.20;;;13.30;;
11671;SDS011;5892;43.412;24.612;2022-09-04T02:42:26;14.70;;;12.93;;
11671;SDS011;5892;43.412;24.612;2022-09-04T02:44:59;14.47;;;12.97;;
11671;SDS011;5892;43.412;24.612;2022-09-04T02:47:32;15.37;;;12.73;;
11671;SDS011;5892;43.412;24.612;2022-09-04T02:50:02;14.80;;;12.87;;
11671;SDS011;5892;43.412;24.612;2022-09-04T02:52:48;15.10;;;13.37;;
11671;SDS011;5892;43.412;24.612;2022-09-04T02:55:20;13.93;;;12.43;;
11671;SDS011;5892;43.412;24.612;2022-09-04T02:57:53;15.20;;;13.03;;
11671;SDS011;5892;43.412;24.612;2022-09-04T03:03:06;14.40;;;12.87;;
11671;SDS011;5892;43.412;24.612;2022-09-04T03:05:55;14.23;;;12.73;;
11671;SDS011;5892;43.412;24.612;2022-09-04T03:08:38;14.60;;;13.10;;
11671;SDS011;5892;43.412;24.612;2022-09-04T03:11:25;14.63;;;13.23;;
11671;SDS011;5892;43.412;24.612;2022-09-04T03:14:11;15.37;;;13.77;;
11671;SDS011;5892;43.412;24.612;2022-09-04T03:16:42;15.80;;;14.30;;
11671;SDS011;5892;43.412;24.612;2022-09-04T03:19:14;16.27;;;14.57;;
11671;SDS011;5892;43.412;24.612;2022-09-04T03:21:58;15.87;;;14.27;;
11671;SDS011;5892;43.412;24.612;2022-09-04T03:24:28;15.80;;;14.10;;
11671;SDS011;5892;43.412;24.612;2022-09-04T03:26:58;16.70;;;14.63;;
11671;SDS011;5892;43.412;24.612;2022-09-04T03:29:29;15.20;;;13.80;;
11671;SDS011;5892;43.412;24.612;2022-09-04T03:32:05;16.00;;;14.40;;
11671;SDS011;5892;43.412;24.612;2022-09-04T03:34:48;15.03;;;13.43;;
11671;SDS011;5892;43.412;24.612;2022-09-04T03:37:19;15.67;;;13.93;;
11671;SDS011;5892;43.412;24.612;2022-09-04T03:39:52;17.17;;;15.47;;
11671;SDS011;5892;43.412;24.612;2022-09-04T03:42:28;18.87;;;15.70;;
11671;SDS011;5892;43.412;24.612;2022-09-04T03:45:07;15.63;;;14.13;;
11671;SDS011;5892;43.412;24.612;2022-09-04T03:47:41;17.40;;;15.60;;
11671;SDS011;5892;43.412;24.612;2022-09-04T03:50:15;16.83;;;15.00;;
11671;SDS011;5892;43.412;24.612;2022-09-04T03:52:44;16.40;;;14.80;;
11671;SDS011;5892;43.412;24.612;2022-09-04T03:55:22;16.50;;;14.53;;
11671;SDS011;5892;43.412;24.612;2022-09-04T03:57:56;15.73;;;14.13;;
11671;SDS011;5892;43.412;24.612;2022-09-04T04:00:24;14.70;;;13.20;;
11671;SDS011;5892;43.412;24.612;2022-09-04T04:02:58;15.30;;;12.77;;
11671;SDS011;5892;43.412;24.612;2022-09-04T04:05:29;13.53;;;12.23;;
11671;SDS011;5892;43.412;24.612;2022-09-04T04:08:03;14.13;;;12.63;;
11671;SDS011;5892;43.412;24.612;2022-09-04T04:10:33;13.53;;;12.13;;
11671;SDS011;5892;43.412;24.612;2022-09-04T04:13:10;14.00;;;12.70;;
11671;SDS011;5892;43.412;24.612;2022-09-04T04:15:51;13.33;;;11.53;;
11671;SDS011;5892;43.412;24.612;2022-09-04T04:18:32;13.43;;;12.17;;
11671;SDS011;5892;43.412;24.612;2022-09-04T04:21:29;13.83;;;12.17;;
11671;SDS011;5892;43.412;24.612;2022-09-04T04:24:12;13.77;;;12.37;;
11671;SDS011;5892;43.412;24.612;2022-09-04T04:26:44;14.63;;;13.13;;
11671;SDS011;5892;43.412;24.612;2022-09-04T04:29:28;14.73;;;13.07;;
11671;SDS011;5892;43.412;24.612;2022-09-04T04:32:11;14.60;;;12.73;;
11671;SDS011;5892;43.412;24.612;2022-09-04T04:37:29;13.30;;;12.00;;
11671;SDS011;5892;43.412;24.612;2022-09-04T04:40:00;13.03;;;11.63;;
11671;SDS011;5892;43.412;24.612;2022-09-04T04:42:30;13.53;;;12.23;;
11671;SDS011;5892;43.412;24.612;2022-09-04T04:48:06;13.10;;;11.77;;
11671;SDS011;5892;43.412;24.612;2022-09-04T04:50:40;13.10;;;11.80;;
11671;SDS011;5892;43.412;24.612;2022-09-04T04:53:13;12.83;;;11.30;;
11671;SDS011;5892;43.412;24.612;2022-09-04T04:55:43;12.67;;;11.43;;
11671;SDS011;5892;43.412;24.612;2022-09-04T04:58:17;13.20;;;11.57;;
11671;SDS011;5892;43.412;24.612;2022-09-04T05:00:46;17.33;;;11.17;;
11671;SDS011;5892;43.412;24.612;2022-09-04T05:03:17;13.23;;;11.57;;
11671;SDS011;5892;43.412;24.612;2022-09-04T05:05:49;12.90;;;11.70;;
11671;SDS011;5892;43.412;24.612;2022-09-04T05:08:20;13.10;;;11.40;;
11671;SDS011;5892;43.412;24.612;2022-09-04T05:10:51;12.83;;;11.50;;
11671;SDS011;5892;43.412;24.612;2022-09-04T05:13:21;13.30;;;11.90;;
11671;SDS011;5892;43.412;24.612;2022-09-04T05:15:52;12.80;;;11.57;;
11671;SDS011;5892;43.412;24.612;2022-09-04T05:18:21;12.43;;;11.20;;
11671;SDS011;5892;43.412;24.612;2022-09-04T05:20:52;13.17;;;11.87;;
11671;SDS011;5892;43.412;24.612;2022-09-04T05:23:27;13.50;;;11.40;;
11671;SDS011;5892;43.412;24.612;2022-09-04T05:25:57;13.57;;;11.93;;
11671;SDS011;5892;43.412;24.612;2022-09-04T05:28:28;12.43;;;11.00;;
11671;SDS011;5892;43.412;24.612;2022-09-04T05:31:02;13.07;;;11.00;;
11671;SDS011;5892;43.412;24.612;2022-09-04T05:33:32;11.87;;;10.77;;
11671;SDS011;5892;43.412;24.612;2022-09-04T05:36:08;12.27;;;10.97;;
11671;SDS011;5892;43.412;24.612;2022-09-04T05:38:42;12.00;;;10.90;;
11671;SDS011;5892;43.412;24.612;2022-09-04T05:41:14;12.60;;;11.30;;
11671;SDS011;5892;43.412;24.612;2022-09-04T05:43:50;12.70;;;11.40;;
11671;SDS011;5892;43.412;24.612;2022-09-04T05:46:23;12.63;;;11.40;;
11671;SDS011;5892;43.412;24.612;2022-09-04T05:48:57;12.43;;;11.23;;
11671;SDS011;5892;43.412;24.612;2022-09-04T05:51:30;11.60;;;10.40;;
11671;SDS011;5892;43.412;24.612;2022-09-04T05:56:46;12.67;;;11.37;;
11671;SDS011;5892;43.412;24.612;2022-09-04T05:59:18;11.83;;;10.67;;
11671;SDS011;5892;43.412;24.612;2022-09-04T06:01:53;14.53;;;11.20;;
11671;SDS011;5892;43.412;24.612;2022-09-04T06:04:35;12.00;;;10.90;;
11671;SDS011;5892;43.412;24.612;2022-09-04T06:07:08;11.23;;;10.13;;
11671;SDS011;5892;43.412;24.612;2022-09-04T06:09:46;12.17;;;10.90;;
11671;SDS011;5892;43.412;24.612;2022-09-04T06:12:24;13.10;;;11.83;;
11671;SDS011;5892;43.412;24.612;2022-09-04T06:15:11;13.20;;;11.90;;
11671;SDS011;5892;43.412;24.612;2022-09-04T06:20:44;12.63;;;11.43;;
11671;SDS011;5892;43.412;24.612;2022-09-04T06:23:18;11.97;;;10.87;;
11671;SDS011;5892;43.412;24.612;2022-09-04T06:31:37;13.00;;;11.73;;
11671;SDS011;5892;43.412;24.612;2022-09-04T06:34:08;12.90;;;11.70;;
11671;SDS011;5892;43.412;24.612;2022-09-04T06:36:49;11.90;;;10.80;;
11671;SDS011;5892;43.412;24.612;2022-09-04T06:39:31;12.40;;;11.20;;
11671;SDS011;5892;43.412;24.612;2022-09-04T06:42:03;12.23;;;11.00;;
11671;SDS011;5892;43.412;24.612;2022-09-04T06:44:35;12.77;;;11.23;;
11671;SDS011;5892;43.412;24.612;2022-09-04T06:47:08;11.30;;;10.30;;
11671;SDS011;5892;43.412;24.612;2022-09-04T06:49:51;11.27;;;10.17;;
11671;SDS011;5892;43.412;24.612;2022-09-04T06:55:12;11.03;;;10.00;;
11671;SDS011;5892;43.412;24.612;2022-09-04T06:57:58;11.17;;;10.00;;
11671;SDS011;5892;43.412;24.612;2022-09-04T07:00:25;9.83;;;8.93;;
11671;SDS011;5892;43.412;24.612;2022-09-04T07:03:04;9.53;;;8.63;;
11671;SDS011;5892;43.412;24.612;2022-09-04T07:05:36;9.67;;;8.77;;
11671;SDS011;5892;43.412;24.612;2022-09-04T07:08:07;8.90;;;8.10;;
11671;SDS011;5892;43.412;24.612;2022-09-04T07:10:39;10.17;;;9.07;;
11671;SDS011;5892;43.412;24.612;2022-09-04T07:13:20;9.13;;;8.33;;
11671;SDS011;5892;43.412;24.612;2022-09-04T07:21:28;9.13;;;6.60;;
11671;SDS011;5892;43.412;24.612;2022-09-04T07:23:57;7.07;;;6.37;;
11671;SDS011;5892;43.412;24.612;2022-09-04T07:26:28;6.23;;;5.63;;
11671;SDS011;5892;43.412;24.612;2022-09-04T07:29:12;6.60;;;6.00;;
11671;SDS011;5892;43.412;24.612;2022-09-04T07:31:45;6.03;;;5.40;;
11671;SDS011;5892;43.412;24.612;2022-09-04T07:34:15;6.17;;;5.63;;
11671;SDS011;5892;43.412;24.612;2022-09-04T07:36:47;6.13;;;5.63;;
11671;SDS011;5892;43.412;24.612;2022-09-04T07:39:19;6.60;;;5.50;;
11671;SDS011;5892;43.412;24.612;2022-09-04T07:41:50;6.07;;;5.57;;
11671;SDS011;5892;43.412;24.612;2022-09-04T07:44:21;8.13;;;5.90;;
11671;SDS011;5892;43.412;24.612;2022-09-04T07:46:55;6.43;;;5.27;;
11671;SDS011;5892;43.412;24.612;2022-09-04T07:49:26;6.87;;;5.70;;
11671;SDS011;5892;43.412;24.612;2022-09-04T07:51:58;5.90;;;5.30;;
11671;SDS011;5892;43.412;24.612;2022-09-04T07:54:32;5.50;;;5.00;;
11671;SDS011;5892;43.412;24.612;2022-09-04T07:57:19;5.87;;;5.37;;
11671;SDS011;5892;43.412;24.612;2022-09-04T08:02:46;5.70;;;4.83;;
11671;SDS011;5892;43.412;24.612;2022-09-04T08:05:23;5.30;;;4.80;;
11671;SDS011;5892;43.412;24.612;2022-09-04T08:10:47;5.33;;;4.83;;
11671;SDS011;5892;43.412;24.612;2022-09-04T08:13:29;5.10;;;4.70;;
11671;SDS011;5892;43.412;24.612;2022-09-04T08:16:04;5.73;;;5.23;;
11671;SDS011;5892;43.412;24.612;2022-09-04T08:18:35;5.50;;;5.10;;
11671;SDS011;5892;43.412;24.612;2022-09-04T08:21:14;5.47;;;4.90;;
11671;SDS011;5892;43.412;24.612;2022-09-04T08:26:33;5.17;;;4.47;;
11671;SDS011;5892;43.412;24.612;2022-09-04T08:29:10;5.20;;;4.70;;
11671;SDS011;5892;43.412;24.612;2022-09-04T08:31:40;6.80;;;4.70;;
11671;SDS011;5892;43.412;24.612;2022-09-04T08:36:54;5.60;;;5.10;;
11671;SDS011;5892;43.412;24.612;2022-09-04T08:39:27;6.10;;;5.60;;
11671;SDS011;5892;43.412;24.612;2022-09-04T08:45:16;5.33;;;4.83;;
11671;SDS011;5892;43.412;24.612;2022-09-04T08:50:51;7.13;;;5.20;;
11671;SDS011;5892;43.412;24.612;2022-09-04T08:53:38;10.73;;;5.60;;
11671;SDS011;5892;43.412;24.612;2022-09-04T08:56:16;10.20;;;5.20;;
11671;SDS011;5892;43.412;24.612;2022-09-04T09:04:29;8.63;;;5.17;;
11671;SDS011;5892;43.412;24.612;2022-09-04T09:07:12;5.47;;;4.97;;
11671;SDS011;5892;43.412;24.612;2022-09-04T09:09:54;8.53;;;5.00;;
11671;SDS011;5892;43.412;24.612;2022-09-04T09:12:48;5.73;;;4.73;;
11671;SDS011;5892;43.412;24.612;2022-09-04T09:15:24;5.20;;;4.80;;
11671;SDS011;5892;43.412;24.612;2022-09-04T09:18:01;7.67;;;5.60;;
11671;SDS011;5892;43.412;24.612;2022-09-04T09:20:30;7.87;;;5.10;;
11671;SDS011;5892;43.412;24.612;2022-09-04T09:23:14;6.10;;;4.40;;
11671;SDS011;5892;43.412;24.612;2022-09-04T09:25:42;5.10;;;4.70;;
11671;SDS011;5892;43.412;24.612;2022-09-04T09:33:59;5.93;;;4.30;;
11671;SDS011;5892;43.412;24.612;2022-09-04T09:36:43;4.13;;;3.80;;
11671;SDS011;5892;43.412;24.612;2022-09-04T09:39:25;6.13;;;3.60;;
11671;SDS011;5892;43.412;24.612;2022-09-04T09:41:57;3.60;;;3.30;;
11671;SDS011;5892;43.412;24.612;2022-09-04T09:44:34;9.33;;;3.70;;
11671;SDS011;5892;43.412;24.612;2022-09-04T09:52:47;4.80;;;2.73;;
11671;SDS011;5892;43.412;24.612;2022-09-04T09:58:13;3.50;;;3.17;;
11671;SDS011;5892;43.412;24.612;2022-09-04T10:00:48;3.37;;;3.13;;
11671;SDS011;5892;43.412;24.612;2022-09-04T10:03:31;4.00;;;3.60;;
11671;SDS011;5892;43.412;24.612;2022-09-04T10:14:23;5.63;;;3.10;;
11671;SDS011;5892;43.412;24.612;2022-09-04T10:17:08;4.47;;;3.30;;
11671;SDS011;5892;43.412;24.612;2022-09-04T10:25:27;2.90;;;2.57;;
11671;SDS011;5892;43.412;24.612;2022-09-04T10:28:06;3.00;;;2.80;;
11671;SDS011;5892;43.412;24.612;2022-09-04T10:30:48;5.13;;;2.90;;
11671;SDS011;5892;43.412;24.612;2022-09-04T10:33:25;3.10;;;2.70;;
11671;SDS011;5892;43.412;24.612;2022-09-04T10:35:56;3.80;;;3.10;;
11671;SDS011;5892;43.412;24.612;2022-09-04T10:38:37;3.33;;;3.00;;
11671;SDS011;5892;43.412;24.612;2022-09-04T10:41:33;3.37;;;3.10;;
11671;SDS011;5892;43.412;24.612;2022-09-04T10:44:10;3.03;;;2.83;;
11671;SDS011;5892;43.412;24.612;2022-09-04T10:46:41;3.17;;;2.67;;
11671;SDS011;5892;43.412;24.612;2022-09-04T10:55:07;2.70;;;2.50;;
11671;SDS011;5892;43.412;24.612;2022-09-04T11:00:40;5.40;;;2.80;;
11671;SDS011;5892;43.412;24.612;2022-09-04T11:08:47;2.40;;;2.20;;
11671;SDS011;5892;43.412;24.612;2022-09-04T11:11:30;3.57;;;2.30;;
11671;SDS011;5892;43.412;24.612;2022-09-04T11:14:10;6.73;;;3.30;;
11671;SDS011;5892;43.412;24.612;2022-09-04T11:25:28;3.23;;;2.20;;
11671;SDS011;5892;43.412;24.612;2022-09-04T11:28:05;2.70;;;2.50;;
11671;SDS011;5892;43.412;24.612;2022-09-04T11:30:49;3.53;;;2.23;;
11671;SDS011;5892;43.412;24.612;2022-09-04T11:33:25;2.63;;;2.43;;
11671;SDS011;5892;43.412;24.612;2022-09-04T11:36:19;2.63;;;2.43;;
11671;SDS011;5892;43.412;24.612;2022-09-04T11:38:54;2.40;;;2.20;;
11671;SDS011;5892;43.412;24.612;2022-09-04T12:01:52;3.50;;;2.30;;
11671;SDS011;5892;43.412;24.612;2022-09-04T12:04:42;2.60;;;2.30;;
11671;SDS011;5892;43.412;24.612;2022-09-04T12:07:29;4.20;;;2.50;;
11671;SDS011;5892;43.412;24.612;2022-09-04T12:10:19;4.23;;;2.30;;
11671;SDS011;5892;43.412;24.612;2022-09-04T12:25:00;2.00;;;1.80;;
11671;SDS011;5892;43.412;24.612;2022-09-04T12:27:56;1.93;;;1.77;;
11671;SDS011;5892;43.412;24.612;2022-09-04T12:30:45;1.80;;;1.70;;
11671;SDS011;5892;43.412;24.612;2022-09-04T12:33:32;4.03;;;1.77;;
11671;SDS011;5892;43.412;24.612;2022-09-04T12:39:13;4.73;;;2.13;;
11671;SDS011;5892;43.412;24.612;2022-09-04T12:42:05;2.63;;;2.10;;
11671;SDS011;5892;43.412;24.612;2022-09-04T12:44:42;4.43;;;2.33;;
11671;SDS011;5892;43.412;24.612;2022-09-04T12:47:25;3.00;;;2.00;;
11671;SDS011;5892;43.412;24.612;2022-09-04T12:50:12;6.13;;;2.10;;
11671;SDS011;5892;43.412;24.612;2022-09-04T12:52:58;3.13;;;1.77;;
11671;SDS011;5892;43.412;24.612;2022-09-04T12:55:41;4.63;;;2.13;;
11671;SDS011;5892;43.412;24.612;2022-09-04T12:58:18;2.50;;;2.10;;
11671;SDS011;5892;43.412;24.612;2022-09-04T13:01:01;1.93;;;1.80;;
11671;SDS011;5892;43.412;24.612;2022-09-04T13:03:57;3.47;;;1.87;;
11671;SDS011;5892;43.412;24.612;2022-09-04T13:06:34;2.20;;;1.83;;
11671;SDS011;5892;43.412;24.612;2022-09-04T13:09:13;3.40;;;2.00;;
11671;SDS011;5892;43.412;24.612;2022-09-04T13:11:52;2.20;;;2.00;;
11671;SDS011;5892;43.412;24.612;2022-09-04T13:14:52;2.80;;;1.63;;
11671;SDS011;5892;43.412;24.612;2022-09-04T13:17:32;2.77;;;1.80;;
11671;SDS011;5892;43.412;24.612;2022-09-04T13:20:11;2.00;;;1.90;;
11671;SDS011;5892;43.412;24.612;2022-09-04T13:23:04;3.80;;;2.00;;
11671;SDS011;5892;43.412;24.612;2022-09-04T13:25:45;1.83;;;1.70;;
11671;SDS011;5892;43.412;24.612;2022-09-04T13:28:28;1.73;;;1.63;;
11671;SDS011;5892;43.412;24.612;2022-09-04T13:31:17;16.33;;;2.27;;
11671;SDS011;5892;43.412;24.612;2022-09-04T13:34:01;1.77;;;1.67;;
11671;SDS011;5892;43.412;24.612;2022-09-04T13:36:39;1.93;;;1.63;;
11671;SDS011;5892;43.412;24.612;2022-09-04T13:39:21;2.10;;;1.90;;
11671;SDS011;5892;43.412;24.612;2022-09-04T13:45:05;3.70;;;1.97;;
11671;SDS011;5892;43.412;24.612;2022-09-04T13:47:38;2.90;;;1.90;;
11671;SDS011;5892;43.412;24.612;2022-09-04T13:50:15;6.23;;;1.83;;
11671;SDS011;5892;43.412;24.612;2022-09-04T13:52:46;1.90;;;1.67;;
11671;SDS011;5892;43.412;24.612;2022-09-04T13:55:18;1.70;;;1.60;;
11671;SDS011;5892;43.412;24.612;2022-09-04T13:57:50;2.47;;;1.80;;
11671;SDS011;5892;43.412;24.612;2022-09-04T14:00:23;4.50;;;1.60;;
11671;SDS011;5892;43.412;24.612;2022-09-04T14:02:53;1.80;;;1.70;;
11671;SDS011;5892;43.412;24.612;2022-09-04T14:05:25;3.83;;;1.77;;
11671;SDS011;5892;43.412;24.612;2022-09-04T14:07:56;1.80;;;1.70;;
11671;SDS011;5892;43.412;24.612;2022-09-04T14:10:32;4.00;;;1.70;;
11671;SDS011;5892;43.412;24.612;2022-09-04T14:13:26;1.70;;;1.60;;
11671;SDS011;5892;43.412;24.612;2022-09-04T14:16:03;2.03;;;1.93;;
11671;SDS011;5892;43.412;24.612;2022-09-04T14:18:56;2.20;;;1.67;;
11671;SDS011;5892;43.412;24.612;2022-09-04T14:21:40;2.03;;;1.67;;
11671;SDS011;5892;43.412;24.612;2022-09-04T14:24:20;2.77;;;1.70;;
11671;SDS011;5892;43.412;24.612;2022-09-04T14:26:58;4.67;;;1.87;;
11671;SDS011;5892;43.412;24.612;2022-09-04T14:29:34;1.70;;;1.60;;
11671;SDS011;5892;43.412;24.612;2022-09-04T14:32:13;2.37;;;1.63;;
11671;SDS011;5892;43.412;24.612;2022-09-04T14:34:54;1.93;;;1.83;;
11671;SDS011;5892;43.412;24.612;2022-09-04T14:37:33;2.47;;;1.50;;
11671;SDS011;5892;43.412;24.612;2022-09-04T14:40:14;4.93;;;1.80;;
11671;SDS011;5892;43.412;24.612;2022-09-04T14:42:46;2.13;;;1.70;;
11671;SDS011;5892;43.412;24.612;2022-09-04T14:48:30;4.60;;;1.93;;
11671;SDS011;5892;43.412;24.612;2022-09-04T14:51:30;1.80;;;1.70;;
11671;SDS011;5892;43.412;24.612;2022-09-04T14:54:29;5.77;;;1.80;;
11671;SDS011;5892;43.412;24.612;2022-09-04T14:57:01;2.67;;;1.47;;
11671;SDS011;5892;43.412;24.612;2022-09-04T14:59:37;2.00;;;1.80;;
11671;SDS011;5892;43.412;24.612;2022-09-04T15:02:12;2.00;;;1.77;;
11671;SDS011;5892;43.412;24.612;2022-09-04T15:04:47;3.43;;;1.73;;
11671;SDS011;5892;43.412;24.612;2022-09-04T15:07:22;1.73;;;1.63;;
11671;SDS011;5892;43.412;24.612;2022-09-04T15:10:04;2.10;;;1.90;;
11671;SDS011;5892;43.412;24.612;2022-09-04T15:12:39;3.67;;;2.03;;
11671;SDS011;5892;43.412;24.612;2022-09-04T15:15:13;2.50;;;2.03;;
11671;SDS011;5892;43.412;24.612;2022-09-04T15:17:46;2.13;;;1.90;;
11671;SDS011;5892;43.412;24.612;2022-09-04T15:20:19;2.20;;;2.00;;
11671;SDS011;5892;43.412;24.612;2022-09-04T15:22:50;5.07;;;2.07;;
11671;SDS011;5892;43.412;24.612;2022-09-04T15:25:31;5.13;;;3.73;;
11671;SDS011;5892;43.412;24.612;2022-09-04T15:28:09;3.83;;;2.87;;
11671;SDS011;5892;43.412;24.612;2022-09-04T15:30:44;2.30;;;2.10;;
11671;SDS011;5892;43.412;24.612;2022-09-04T15:36:35;2.77;;;2.50;;
11671;SDS011;5892;43.412;24.612;2022-09-04T15:39:05;5.50;;;2.33;;
11671;SDS011;5892;43.412;24.612;2022-09-04T15:41:37;4.83;;;2.60;;
11671;SDS011;5892;43.412;24.612;2022-09-04T15:44:18;5.97;;;2.50;;
11671;SDS011;5892;43.412;24.612;2022-09-04T15:47:35;3.63;;;2.70;;
11671;SDS011;5892;43.412;24.612;2022-09-04T15:50:15;4.97;;;2.70;;
11671;SDS011;5892;43.412;24.612;2022-09-04T15:52:47;4.80;;;2.70;;
11671;SDS011;5892;43.412;24.612;2022-09-04T15:55:23;4.93;;;3.00;;
11671;SDS011;5892;43.412;24.612;2022-09-04T15:57:54;4.93;;;2.83;;
11671;SDS011;5892;43.412;24.612;2022-09-04T16:00:53;3.30;;;3.00;;
11671;SDS011;5892;43.412;24.612;2022-09-04T16:03:40;3.87;;;3.00;;
11671;SDS011;5892;43.412;24.612;2022-09-04T16:06:17;5.23;;;3.20;;
11671;SDS011;5892;43.412;24.612;2022-09-04T16:08:48;6.20;;;3.40;;
11671;SDS011;5892;43.412;24.612;2022-09-04T16:11:23;7.17;;;3.03;;
11671;SDS011;5892;43.412;24.612;2022-09-04T16:13:55;4.13;;;3.00;;
11671;SDS011;5892;43.412;24.612;2022-09-04T16:16:27;6.13;;;3.23;;
11671;SDS011;5892;43.412;24.612;2022-09-04T16:21:49;4.67;;;3.13;;
11671;SDS011;5892;43.412;24.612;2022-09-04T16:24:28;5.53;;;3.20;;
11671;SDS011;5892;43.412;24.612;2022-09-04T16:27:03;5.00;;;3.27;;
11671;SDS011;5892;43.412;24.612;2022-09-04T16:29:33;7.07;;;3.40;;
11671;SDS011;5892;43.412;24.612;2022-09-04T16:32:03;4.57;;;3.00;;
11671;SDS011;5892;43.412;24.612;2022-09-04T16:34:36;3.87;;;2.90;;
11671;SDS011;5892;43.412;24.612;2022-09-04T16:41:07;4.17;;;3.10;;
11671;SDS011;5892;43.412;24.612;2022-09-04T16:43:40;3.93;;;2.93;;
11671;SDS011;5892;43.412;24.612;2022-09-04T16:46:35;4.10;;;2.80;;
11671;SDS011;5892;43.412;24.612;2022-09-04T16:49:09;4.60;;;3.13;;
11671;SDS011;5892;43.412;24.612;2022-09-04T16:51:43;3.37;;;2.93;;
11671;SDS011;5892;43.412;24.612;2022-09-04T16:54:16;5.50;;;3.10;;
11671;SDS011;5892;43.412;24.612;2022-09-04T16:56:56;3.33;;;2.90;;
11671;SDS011;5892;43.412;24.612;2022-09-04T16:59:30;4.23;;;3.60;;
11671;SDS011;5892;43.412;24.612;2022-09-04T17:02:07;7.27;;;3.43;;
11671;SDS011;5892;43.412;24.612;2022-09-04T17:04:46;6.23;;;3.40;;
11671;SDS011;5892;43.412;24.612;2022-09-04T17:07:19;6.27;;;4.30;;
11671;SDS011;5892;43.412;24.612;2022-09-04T17:09:54;4.33;;;3.47;;
11671;SDS011;5892;43.412;24.612;2022-09-04T17:12:30;4.73;;;3.67;;
11671;SDS011;5892;43.412;24.612;2022-09-04T17:15:14;4.27;;;3.50;;
11671;SDS011;5892;43.412;24.612;2022-09-04T17:17:46;5.53;;;3.37;;
11671;SDS011;5892;43.412;24.612;2022-09-04T17:20:19;5.60;;;3.93;;
11671;SDS011;5892;43.412;24.612;2022-09-04T17:22:54;5.90;;;3.70;;
11671;SDS011;5892;43.412;24.612;2022-09-04T17:25:34;6.27;;;3.80;;
11671;SDS011;5892;43.412;24.612;2022-09-04T17:28:16;4.13;;;3.60;;
11671;SDS011;5892;43.412;24.612;2022-09-04T17:30:53;4.97;;;3.50;;
11671;SDS011;5892;43.412;24.612;2022-09-04T17:33:22;4.03;;;3.63;;
11671;SDS011;5892;43.412;24.612;2022-09-04T17:35:56;4.33;;;3.20;;
11671;SDS011;5892;43.412;24.612;2022-09-04T17:38:28;4.57;;;3.43;;
11671;SDS011;5892;43.412;24.612;2022-09-04T17:41:03;3.90;;;3.20;;
11671;SDS011;5892;43.412;24.612;2022-09-04T17:43:53;4.23;;;3.40;;
11671;SDS011;5892;43.412;24.612;2022-09-04T17:46:32;4.00;;;3.50;;
11671;SDS011;5892;43.412;24.612;2022-09-04T17:49:12;3.97;;;3.67;;
11671;SDS011;5892;43.412;24.612;2022-09-04T17:51:51;4.10;;;3.70;;
11671;SDS011;5892;43.412;24.612;2022-09-04T17:54:20;4.70;;;3.57;;
11671;SDS011;5892;43.412;24.612;2022-09-04T17:57:02;5.97;;;4.77;;
11671;SDS011;5892;43.412;24.612;2022-09-04T18:00:23;5.83;;;4.40;;
11671;SDS011;5892;43.412;24.612;2022-09-04T18:02:56;6.00;;;4.97;;
11671;SDS011;5892;43.412;24.612;2022-09-04T18:05:28;5.47;;;4.40;;
11671;SDS011;5892;43.412;24.612;2022-09-04T18:08:00;5.10;;;4.10;;
11671;SDS011;5892;43.412;24.612;2022-09-04T18:10:32;4.67;;;3.83;;
11671;SDS011;5892;43.412;24.612;2022-09-04T18:13:08;4.40;;;3.77;;
11671;SDS011;5892;43.412;24.612;2022-09-04T18:15:42;5.00;;;3.50;;
11671;SDS011;5892;43.412;24.612;2022-09-04T18:18:20;5.03;;;3.80;;
11671;SDS011;5892;43.412;24.612;2022-09-04T18:20:54;4.33;;;3.80;;